Weather at Sky Island Ranch Airport

Public forecast

Using degrees Fahrenheit for public forecast. Weather courtesy of forecast.io.

Closest aviation weather report (METAR) to Sky Island Ranch Airport

Closest report is Coeur D'Alene - Pappy Boyington Field, 28.1 nm (52.1 km) NNW. Retrieved 2021/10/21 04:56 UTC (21 minutes ago):

KCOE 210456Z AUTO 00000KT 10SM CLR 06/05 A3009 RMK AO2 SLP214 T00610050 PNO

Closest aviation forecast (TAF) to Sky Island Ranch Airport

Closest forecast is Coeur D'Alene - Pappy Boyington Field, 28.1 nm (52.1 km) NNW. Retrieved 2021-10-21 00:22 UTC (5 hours ago):

TAF KCOE 202320Z 2100/2124 15007G12KT P6SM BKN045 BKN100 FM210600 12005KT 6SM BR SCT050 BKN080 FM211800 05008KT P6SM SCT080 BKN200